Time;durP1;ratioP1;P1;durP2;ratioP2;P2;SDS_P1;SDS_P2;PMS_P1;PMS_P2;Temp;Humidity;BMP_temperature;BMP_pressure;BME280_temperature;BME280_humidity;BME280_pressure;Samples;Min_cycle;Max_cycle;Signal;HPM_P1;HPM_P2
2023/05/03 00:01:16;;;;;;;14.10;12.70;;;;;;;9.81;92.31;98334.78;6064310;29;20281;-46
2023/05/03 00:04:19;;;;;;;16.27;12.70;;;;;;;9.82;92.83;98331.06;6064401;29;20233;-49
2023/05/03 00:07:21;;;;;;;16.10;13.23;;;;;;;9.60;92.89;98291.78;6074191;29;20269;-46
2023/05/03 00:10:24;;;;;;;14.57;13.00;;;;;;;9.79;92.88;98328.03;6069277;29;20872;-44
2023/05/03 00:13:26;;;;;;;14.53;13.13;;;;;;;9.85;92.28;98334.31;6078317;29;20730;-46
2023/05/03 00:16:28;;;;;;;15.20;12.97;;;;;;;9.77;92.62;98330.91;6074695;29;20694;-48
2023/05/03 00:19:32;;;;;;;15.50;13.90;;;;;;;9.77;92.02;98330.91;6074481;29;20238;-45
2023/05/03 00:22:35;;;;;;;15.57;13.90;;;;;;;9.75;92.25;98322.34;6049140;29;20720;-45
2023/05/03 00:25:37;;;;;;;15.37;13.13;;;;;;;9.86;91.42;98330.63;6056033;29;20282;-48
2023/05/03 00:28:40;;;;;;;15.70;13.30;;;;;;;9.98;90.07;98324.34;6078135;29;20234;-45
2023/05/03 00:31:43;;;;;;;16.77;12.57;;;;;;;9.93;89.96;98326.84;6056573;29;20297;-45
2023/05/03 00:34:45;;;;;;;13.57;12.17;;;;;;;9.89;90.70;98324.84;6072883;29;20609;-47
2023/05/03 00:37:47;;;;;;;15.73;13.97;;;;;;;9.81;90.74;98320.66;6056652;29;20680;-46
2023/05/03 00:40:53;;;;;;;14.20;12.70;;;;;;;9.77;91.61;98335.44;6072733;29;20248;-46
2023/05/03 00:43:55;;;;;;;14.10;12.60;;;;;;;9.69;91.68;98319.75;6073207;29;20239;-46
2023/05/03 00:46:57;;;;;;;14.80;13.20;;;;;;;9.92;90.42;98330.56;6073109;29;20247;-47
2023/05/03 00:50:00;;;;;;;14.63;13.20;;;;;;;9.79;91.13;98334.16;6064519;29;20252;-44
2023/05/03 00:53:03;;;;;;;15.23;12.67;;;;;;;9.72;91.57;98337.94;6072922;29;20241;-44
2023/05/03 00:56:06;;;;;;;15.70;13.53;;;;;;;9.44;92.38;98296.66;6074230;29;20257;-44
2023/05/03 00:59:08;;;;;;;14.90;13.40;;;;;;;9.66;92.36;98331.66;6059632;29;20239;-45
2023/05/03 01:02:10;;;;;;;15.40;13.80;;;;;;;9.68;92.38;98340.22;6063673;29;20990;-45
2023/05/03 01:05:12;;;;;;;15.53;13.93;;;;;;;9.51;92.44;98296.59;6072698;29;20400;-45
2023/05/03 01:08:25;;;;;;;14.93;13.43;;;;;;;9.67;92.36;98341.25;6056988;29;20268;-44
2023/05/03 01:12:01;;;;;;;14.50;12.70;;;;;;;9.65;92.77;98340.63;6070982;29;20293;-44
2023/05/03 01:15:21;;;;;;;15.87;14.00;;;;;;;9.69;92.60;98335.69;6062378;29;20258;-44
2023/05/03 01:18:36;;;;;;;15.90;14.27;;;;;;;9.45;92.95;98311.56;6077239;29;20241;-44
2023/05/03 01:21:46;;;;;;;17.23;15.20;;;;;;;9.71;92.91;98334.47;6077505;29;20333;-47
2023/05/03 01:24:58;;;;;;;17.87;15.13;;;;;;;9.70;92.52;98339.97;6077244;29;20252;-44
2023/05/03 01:28:02;;;;;;;15.60;14.00;;;;;;;9.71;92.41;98337.13;6078083;29;20335;-45
2023/05/03 01:31:04;;;;;;;17.17;15.33;;;;;;;9.67;92.61;98330.59;6076995;29;20244;-44
2023/05/03 01:34:15;;;;;;;17.27;15.57;;;;;;;9.68;92.41;98331.41;6070062;29;20242;-45
2023/05/03 01:37:18;;;;;;;17.30;15.50;;;;;;;9.69;92.22;98327.72;6064624;29;20242;-44
2023/05/03 01:40:22;;;;;;;17.83;15.93;;;;;;;9.67;92.43;98335.94;6076872;29;20411;-45
2023/05/03 01:43:25;;;;;;;18.43;16.63;;;;;;;9.52;92.27;98295.56;6060149;29;20238;-47
2023/05/03 01:46:27;;;;;;;17.50;15.33;;;;;;;9.66;92.61;98336.97;6079929;29;20487;-45
2023/05/03 01:49:29;;;;;;;19.57;17.23;;;;;;;9.73;91.81;98323.59;6077787;29;20231;-44
2023/05/03 01:52:32;;;;;;;18.50;16.50;;;;;;;9.77;91.30;98332.78;6076267;29;20271;-45
2023/05/03 01:55:34;;;;;;;18.77;16.13;;;;;;;9.73;92.09;98327.06;6076657;29;20241;-45
2023/05/03 01:58:36;;;;;;;17.53;15.73;;;;;;;9.73;91.71;98328.91;6077132;29;20313;-45
2023/05/03 02:01:38;;;;;;;19.93;16.63;;;;;;;9.76;92.04;98331.97;6060558;29;20271;-45
2023/05/03 02:04:41;;;;;;;19.03;17.03;;;;;;;9.74;91.54;98327.88;6056759;29;20248;-46
2023/05/03 02:07:43;;;;;;;19.20;17.13;;;;;;;9.76;92.03;98331.16;6076663;29;20254;-46
2023/05/03 02:10:45;;;;;;;19.97;17.63;;;;;;;9.69;92.43;98341.03;6078096;29;20316;-44
2023/05/03 02:13:50;;;;;;;21.23;18.93;;;;;;;9.65;92.54;98345.16;6079643;29;20627;-46
2023/05/03 02:16:54;;;;;;;19.47;17.57;;;;;;;9.63;92.23;98337.41;6077598;29;20745;-45
2023/05/03 02:19:57;;;;;;;20.43;18.30;;;;;;;9.59;92.66;98340.72;6059634;29;20233;-46
2023/05/03 02:22:59;;;;;;;21.50;18.93;;;;;;;9.57;92.81;98335.63;6062943;29;20763;-45
2023/05/03 02:26:02;;;;;;;19.13;17.17;;;;;;;9.53;92.68;98331.78;6075012;29;20242;-43
2023/05/03 02:29:04;;;;;;;20.30;18.30;;;;;;;9.55;92.64;98333.16;6076755;29;20921;-45
2023/05/03 02:32:07;;;;;;;20.73;18.27;;;;;;;9.54;93.11;98334.19;6076077;29;20234;-45
2023/05/03 02:35:09;;;;;;;19.70;17.50;;;;;;;9.57;92.70;98340.94;6076406;29;20710;-47
2023/05/03 02:38:11;;;;;;;20.37;18.37;;;;;;;9.56;92.76;98340.13;6059534;29;20237;-46
2023/05/03 02:41:14;;;;;;;21.00;18.80;;;;;;;9.64;92.08;98343.53;6058848;29;20702;-46
2023/05/03 02:44:16;;;;;;;20.70;18.50;;;;;;;9.61;92.10;98338.66;6077524;29;20228;-45
2023/05/03 02:47:18;;;;;;;21.87;19.63;;;;;;;9.55;92.56;98343.78;6076054;29;20269;-47
2023/05/03 02:50:20;;;;;;;22.00;19.80;;;;;;;9.53;92.37;98335.25;6075787;29;20242;-45
2023/05/03 02:53:22;;;;;;;20.53;18.47;;;;;;;9.56;92.45;98331.34;6075749;29;20236;-44
2023/05/03 02:56:27;;;;;;;22.57;20.27;;;;;;;9.54;92.91;98344.84;6063927;29;20273;-45
2023/05/03 02:59:31;;;;;;;21.97;19.73;;;;;;;9.51;92.75;98333.84;6060236;29;20236;-44
2023/05/03 03:02:34;;;;;;;21.97;19.13;;;;;;;9.51;92.98;98336.50;6059179;29;20233;-46
2023/05/03 03:05:36;;;;;;;23.10;20.63;;;;;;;9.49;92.79;98336.69;6058899;29;20285;-46
2023/05/03 03:08:39;;;;;;;21.43;19.20;;;;;;;9.50;92.92;98332.19;6067755;29;20242;-44
2023/05/03 03:11:42;;;;;;;21.73;19.50;;;;;;;9.49;93.04;98330.56;6076138;29;20726;-45
2023/05/03 03:14:44;;;;;;;20.77;18.67;;;;;;;8.89;92.60;98229.28;6075368;29;20236;-46
2023/05/03 03:17:46;;;;;;;21.13;18.80;;;;;;;9.66;91.85;98336.16;6076991;29;20612;-45
2023/05/03 03:20:49;;;;;;;21.07;18.83;;;;;;;9.60;91.88;98335.16;6066746;29;20360;-44
2023/05/03 03:23:52;;;;;;;22.27;19.87;;;;;;;9.42;92.16;98309.38;6064916;29;20305;-44
2023/05/03 03:26:54;;;;;;;20.53;18.43;;;;;;;9.56;92.66;98332.16;6075275;29;20763;-46
2023/05/03 03:29:58;;;;;;;23.50;20.07;;;;;;;9.55;92.53;98343.00;6057767;29;20389;-46
2023/05/03 03:33:00;;;;;;;20.80;18.63;;;;;;;9.60;92.53;98342.34;6065962;29;20454;-45
2023/05/03 03:36:09;;;;;;;23.30;19.97;;;;;;;9.63;92.26;98345.38;6067561;29;20252;-46
2023/05/03 03:39:14;;;;;;;21.10;18.93;;;;;;;9.61;92.16;98352.78;6070446;29;20242;-46
2023/05/03 03:42:17;;;;;;;20.80;18.60;;;;;;;9.63;92.13;98350.69;6075306;29;20217;-45
2023/05/03 03:45:21;;;;;;;20.20;18.20;;;;;;;9.61;92.29;98355.44;6064167;29;20253;-44
2023/05/03 03:48:24;;;;;;;21.57;18.20;;;;;;;9.63;92.29;98357.88;6074875;29;20699;-45
2023/05/03 03:51:26;;;;;;;19.50;17.50;;;;;;;9.63;92.06;98358.69;6075785;29;20243;-47
2023/05/03 03:54:28;;;;;;;20.90;18.67;;;;;;;9.62;92.20;98356.25;6070850;29;20232;-47
2023/05/03 03:57:31;;;;;;;25.33;18.87;;;;;;;9.62;92.24;98362.38;6056476;29;20237;-45
2023/05/03 04:00:35;;;;;;;18.83;16.73;;;;;;;9.62;92.31;98359.72;6060198;29;20248;-44
2023/05/03 04:03:46;;;;;;;21.10;18.90;;;;;;;9.62;92.03;98366.88;6057120;29;20242;-47
2023/05/03 04:06:48;;;;;;;20.87;18.70;;;;;;;9.62;92.37;98364.22;6063705;29;20670;-45
2023/05/03 04:09:52;;;;;;;22.47;20.07;;;;;;;9.64;92.14;98365.63;6062381;29;20254;-45
2023/05/03 04:12:54;;;;;;;21.33;19.13;;;;;;;9.73;91.81;98374.16;6075828;29;20238;-45
2023/05/03 04:15:56;;;;;;;20.90;18.70;;;;;;;9.68;92.05;98372.13;6075089;29;20243;-48
2023/05/03 04:19:00;;;;;;;22.13;19.60;;;;;;;9.67;92.23;98375.84;6064501;29;20259;-48
2023/05/03 04:22:04;;;;;;;20.90;18.63;;;;;;;9.68;92.41;98377.47;6056642;29;20269;-48
2023/05/03 04:25:10;;;;;;;21.10;18.83;;;;;;;9.57;92.21;98351.59;6064612;29;20610;-46
2023/05/03 04:28:12;;;;;;;22.70;20.30;;;;;;;9.81;91.66;98384.53;6073867;29;20329;-45
2023/05/03 04:31:19;;;;;;;25.63;20.93;;;;;;;9.87;90.84;98385.47;6072851;29;20253;-47
2023/05/03 04:34:25;;;;;;;24.60;21.10;;;;;;;9.91;90.72;98390.16;6074533;29;20341;-49
2023/05/03 04:37:29;;;;;;;22.73;20.33;;;;;;;10.01;90.81;98389.66;6073815;29;20326;-46
2023/05/03 04:40:33;;;;;;;21.07;18.83;;;;;;;10.04;90.48;98389.19;6056880;29;20239;-46
2023/05/03 04:43:40;;;;;;;20.70;18.60;;;;;;;9.99;90.13;98389.84;6060035;29;20378;-46
2023/05/03 04:46:42;;;;;;;23.10;20.67;;;;;;;10.04;91.06;98405.16;6062831;29;20745;-47
2023/05/03 04:49:45;;;;;;;22.63;20.30;;;;;;;10.01;90.80;98406.44;6064776;29;20242;-45
2023/05/03 04:52:48;;;;;;;21.37;19.30;;;;;;;10.04;91.03;98419.28;6059874;29;20301;-46
2023/05/03 04:55:51;;;;;;;23.50;19.33;;;;;;;10.06;90.26;98414.56;6055382;29;20322;-48
2023/05/03 04:58:54;;;;;;;21.67;18.93;;;;;;;10.05;90.21;98420.13;6060300;29;20276;-47
2023/05/03 05:01:56;;;;;;;20.17;18.20;;;;;;;10.14;89.66;98421.44;6067586;29;20725;-48
2023/05/03 05:04:58;;;;;;;20.73;18.20;;;;;;;10.17;89.79;98423.66;6061113;29;20724;-46
2023/05/03 05:08:01;;;;;;;21.07;17.33;;;;;;;10.11;90.14;98429.88;6058335;29;20249;-47
2023/05/03 05:11:09;;;;;;;23.30;18.10;;;;;;;10.10;90.36;98430.91;6056054;29;20735;-49
2023/05/03 05:14:12;;;;;;;21.27;19.07;;;;;;;10.13;89.92;98432.31;6064228;29;20755;-46
2023/05/03 05:17:15;;;;;;;19.17;17.00;;;;;;;10.13;89.97;98435.78;6052628;29;20237;-48
2023/05/03 05:20:18;;;;;;;22.60;18.97;;;;;;;10.16;89.29;98437.22;6072208;29;20318;-46
2023/05/03 05:23:23;;;;;;;19.47;17.23;;;;;;;10.18;88.95;98440.44;6074504;29;20754;-49
2023/05/03 05:26:27;;;;;;;20.30;18.17;;;;;;;10.21;89.42;98434.69;6060914;29;20242;-48
2023/05/03 05:29:29;;;;;;;17.83;16.13;;;;;;;10.21;89.37;98435.50;6059027;29;20242;-46
2023/05/03 05:32:32;;;;;;;18.83;16.90;;;;;;;10.21;89.31;98443.50;6072487;29;20306;-47
2023/05/03 05:35:35;;;;;;;19.23;17.27;;;;;;;10.26;88.70;98445.53;6055620;29;20254;-48
2023/05/03 05:38:38;;;;;;;17.70;15.93;;;;;;;10.24;88.74;98440.41;6059428;29;20712;-49
2023/05/03 05:41:41;;;;;;;18.17;16.13;;;;;;;10.30;88.83;98442.22;6054914;29;20600;-47
2023/05/03 05:44:43;;;;;;;18.47;16.43;;;;;;;10.28;88.97;98456.75;6056235;29;20497;-48
2023/05/03 05:47:46;;;;;;;18.07;16.17;;;;;;;10.29;88.12;98456.53;6054234;29;20318;-48
2023/05/03 05:50:48;;;;;;;18.57;16.67;;;;;;;10.35;87.38;98462.03;6071257;29;20235;-47
2023/05/03 05:53:50;;;;;;;17.40;15.57;;;;;;;10.37;88.25;98459.97;6062200;29;20251;-45
2023/05/03 05:56:53;;;;;;;17.37;15.77;;;;;;;10.43;88.46;98470.53;6061733;29;20236;-45
2023/05/03 05:59:56;;;;;;;18.80;16.93;;;;;;;10.51;88.17;98469.44;6072531;29;20297;-44
2023/05/03 06:02:59;;;;;;;20.23;16.20;;;;;;;10.60;87.01;98478.78;6067574;29;20242;-46
2023/05/03 06:06:01;;;;;;;18.37;16.43;;;;;;;10.80;85.06;98468.69;6085073;29;20230;-46
2023/05/03 06:09:03;;;;;;;17.10;15.40;;;;;;;10.74;86.27;98482.91;6066562;29;20243;-45
2023/05/03 06:12:27;;;;;;;18.20;14.50;;;;;;;10.70;85.94;98479.06;6079826;29;20736;-45
2023/05/03 06:15:30;;;;;;;16.07;14.47;;;;;;;10.72;85.32;98484.16;6062419;29;20242;-47
2023/05/03 06:18:32;;;;;;;17.97;16.17;;;;;;;10.79;85.31;98485.72;6062402;29;20592;-44
2023/05/03 06:21:34;;;;;;;16.53;14.83;;;;;;;10.76;84.49;98472.03;6067032;29;20234;-44
2023/05/03 06:24:37;;;;;;;16.13;14.53;;;;;;;10.93;83.86;98482.88;6059675;29;20248;-45
2023/05/03 06:27:39;;;;;;;16.23;14.63;;;;;;;11.05;83.68;98489.09;6069389;29;20814;-45
2023/05/03 06:30:47;;;;;;;16.73;14.93;;;;;;;11.14;82.61;98498.41;6064099;29;20325;-46
2023/05/03 06:33:50;;;;;;;15.07;13.60;;;;;;;11.01;83.72;98483.41;6075833;29;20224;-45
2023/05/03 06:36:52;;;;;;;19.47;14.83;;;;;;;11.17;81.34;98484.63;6074690;29;20248;-45
2023/05/03 06:39:54;;;;;;;15.43;13.33;;;;;;;11.10;82.07;98486.56;6075402;29;20371;-46
2023/05/03 06:42:56;;;;;;;19.70;13.87;;;;;;;11.08;81.74;98496.63;6072027;29;20316;-45
2023/05/03 06:46:11;;;;;;;16.20;14.70;;;;;;;11.07;82.63;98498.50;6066647;29;20303;-46
2023/05/03 06:49:14;;;;;;;15.47;13.93;;;;;;;11.04;82.84;98490.16;6062359;29;20250;-45
2023/05/03 06:52:16;;;;;;;16.10;14.40;;;;;;;11.10;83.69;98498.06;6066445;29;20271;-48
2023/05/03 06:55:18;;;;;;;16.47;14.33;;;;;;;11.15;83.21;98499.22;6075251;29;20250;-45
2023/05/03 06:58:20;;;;;;;16.90;15.20;;;;;;;11.17;83.29;98497.13;6075966;29;20778;-45
2023/05/03 07:01:22;;;;;;;16.73;15.03;;;;;;;11.16;82.86;98501.66;6076015;29;20330;-45
2023/05/03 07:04:24;;;;;;;16.00;14.37;;;;;;;11.19;82.64;98495.91;6076185;29;20239;-45
2023/05/03 07:07:26;;;;;;;15.43;13.60;;;;;;;11.17;82.62;98497.13;6074781;29;20245;-45
2023/05/03 07:10:29;;;;;;;16.63;14.83;;;;;;;11.23;82.43;98496.22;6073115;29;20403;-45
2023/05/03 07:13:32;;;;;;;14.73;13.17;;;;;;;11.34;81.25;98493.63;6079868;29;20325;-46
2023/05/03 07:16:34;;;;;;;15.90;14.20;;;;;;;11.47;80.46;98497.94;6073187;29;20454;-45
2023/05/03 07:19:37;;;;;;;14.40;12.97;;;;;;;11.44;80.33;98495.75;6074037;29;20241;-45
2023/05/03 07:22:39;;;;;;;16.03;14.07;;;;;;;11.59;80.74;98490.81;6074581;29;20235;-45
2023/05/03 07:25:42;;;;;;;15.67;14.17;;;;;;;11.68;79.59;98493.16;6074424;29;20396;-46
2023/05/03 07:28:44;;;;;;;15.27;13.70;;;;;;;11.74;80.10;98493.03;6073580;29;20942;-47
2023/05/03 07:31:46;;;;;;;15.43;13.83;;;;;;;11.83;78.13;98494.38;6074681;29;20239;-46
2023/05/03 07:34:48;;;;;;;14.93;13.43;;;;;;;11.96;77.91;98497.88;6073440;29;20265;-44
2023/05/03 07:37:50;;;;;;;13.93;12.27;;;;;;;11.97;78.02;98497.66;6056795;29;20262;-46
2023/05/03 07:40:52;;;;;;;15.53;12.90;;;;;;;12.08;77.66;98504.03;6073388;29;20247;-45
2023/05/03 07:43:54;;;;;;;13.03;11.70;;;;;;;12.26;75.82;98501.25;6073964;29;20323;-46
2023/05/03 07:46:56;;;;;;;14.30;12.90;;;;;;;12.18;76.56;98501.63;6074280;29;20609;-46
2023/05/03 07:50:00;;;;;;;13.80;12.43;;;;;;;12.04;77.43;98500.19;6075058;29;20348;-46
2023/05/03 07:53:02;;;;;;;14.73;12.87;;;;;;;11.96;78.29;98500.53;6074217;29;20235;-46
2023/05/03 07:56:06;;;;;;;13.50;12.20;;;;;;;11.99;77.21;98506.22;6073962;29;20630;-45
2023/05/03 07:59:08;;;;;;;14.10;12.70;;;;;;;11.85;78.13;98505.63;6074902;29;20296;-46
2023/05/03 08:02:11;;;;;;;13.73;12.30;;;;;;;11.90;78.03;98498.78;6075359;29;20232;-45
2023/05/03 08:05:14;;;;;;;14.53;13.13;;;;;;;11.98;78.56;98509.16;6073530;29;20251;-47
2023/05/03 08:08:17;;;;;;;13.30;11.93;;;;;;;12.12;77.77;98499.88;6071931;29;20240;-46
2023/05/03 08:11:19;;;;;;;15.07;11.77;;;;;;;12.20;78.97;98512.06;6064162;29;20220;-48
2023/05/03 08:14:22;;;;;;;13.93;12.43;;;;;;;12.31;77.56;98516.59;6077469;29;20235;-45
2023/05/03 08:17:25;;;;;;;12.47;11.23;;;;;;;12.44;76.24;98516.34;6074008;29;20738;-47
2023/05/03 08:20:27;;;;;;;11.80;10.47;;;;;;;12.58;75.06;98512.41;6073338;29;20753;-48
2023/05/03 08:23:29;;;;;;;15.30;11.60;;;;;;;12.82;76.05;98517.72;6073270;29;20235;-46
2023/05/03 08:26:33;;;;;;;13.00;10.73;;;;;;;12.95;71.22;98516.63;6073642;29;20252;-48
2023/05/03 08:29:38;;;;;;;12.53;11.10;;;;;;;12.99;71.23;98515.13;6073829;29;20247;-45
2023/05/03 08:32:40;;;;;;;13.87;11.40;;;;;;;13.11;71.91;98521.25;6072863;29;20319;-47
2023/05/03 08:35:42;;;;;;;16.07;10.90;;;;;;;13.50;70.94;98503.56;6068874;29;20659;-46
2023/05/03 08:38:44;;;;;;;11.07;9.23;;;;;;;13.53;69.02;98508.44;6074196;29;20296;-51
2023/05/03 08:41:47;;;;;;;14.03;10.30;;;;;;;13.70;68.55;98518.38;6072745;29;20260;-46
2023/05/03 08:44:49;;;;;;;11.13;10.00;;;;;;;13.59;67.77;98514.69;6073034;29;20862;-47
2023/05/03 08:47:54;;;;;;;11.07;9.87;;;;;;;13.43;68.83;98513.59;6073738;29;20235;-47
2023/05/03 08:50:58;;;;;;;12.20;11.00;;;;;;;13.40;69.21;98503.38;6060889;29;20693;-45
2023/05/03 08:54:00;;;;;;;11.73;9.80;;;;;;;13.60;67.44;98516.31;6065751;29;20319;-46
2023/05/03 08:57:03;;;;;;;11.83;10.13;;;;;;;13.68;67.28;98516.72;6077458;29;20326;-46
2023/05/03 09:00:09;;;;;;;9.90;8.90;;;;;;;13.78;67.10;98526.81;6078068;29;20223;-47
2023/05/03 09:03:11;;;;;;;9.87;8.87;;;;;;;14.00;65.11;98510.84;6072447;29;20714;-45
2023/05/03 09:06:24;;;;;;;9.67;8.67;;;;;;;14.04;64.67;98509.31;6072323;29;20216;-48
2023/05/03 09:09:32;;;;;;;9.43;8.20;;;;;;;14.12;65.19;98510.75;6073740;29;20613;-46
2023/05/03 09:12:40;;;;;;;9.73;8.73;;;;;;;14.13;64.93;98517.72;6073832;29;20248;-46
2023/05/03 09:15:45;;;;;;;11.23;8.30;;;;;;;13.78;66.45;98520.63;6072055;29;20247;-49
2023/05/03 09:19:00;;;;;;;10.23;8.53;;;;;;;13.53;66.48;98519.13;6072926;29;20303;-46
2023/05/03 09:22:06;;;;;;;9.77;8.77;;;;;;;13.80;64.80;98519.34;6072524;29;20250;-46
2023/05/03 09:25:08;;;;;;;9.17;7.63;;;;;;;13.94;63.34;98518.00;6076545;29;20648;-47
2023/05/03 09:28:12;;;;;;;12.03;7.83;;;;;;;13.97;63.00;98511.31;6073048;29;20235;-49
2023/05/03 09:31:14;;;;;;;8.83;7.93;;;;;;;14.11;61.75;98504.59;6072695;29;20722;-45
2023/05/03 09:34:22;;;;;;;7.43;6.47;;;;;;;13.96;64.05;98509.72;6073224;29;20322;-47
2023/05/03 09:37:35;;;;;;;7.33;6.63;;;;;;;13.78;61.49;98494.66;6076988;29;20256;-46
2023/05/03 09:40:46;;;;;;;7.73;6.73;;;;;;;14.22;60.17;98504.75;6076500;29;20731;-46
2023/05/03 09:43:51;;;;;;;7.63;6.60;;;;;;;14.55;62.45;98502.06;6077755;29;20592;-49
2023/05/03 09:47:03;;;;;;;7.80;7.00;;;;;;;14.63;60.99;98484.72;6068544;29;20642;-49
2023/05/03 09:50:06;;;;;;;7.87;6.87;;;;;;;14.46;61.80;98484.72;6076989;29;20243;-48
2023/05/03 09:53:08;;;;;;;7.73;6.73;;;;;;;14.30;62.94;98490.94;6076271;29;20997;-45
2023/05/03 09:56:14;;;;;;;9.57;7.43;;;;;;;14.30;61.27;98497.09;6076878;29;20701;-47
2023/05/03 09:59:16;;;;;;;8.07;6.27;;;;;;;14.02;61.55;98486.47;6078309;29;20258;-46
2023/05/03 10:02:20;;;;;;;7.97;6.63;;;;;;;14.10;62.40;98480.72;6059382;29;20235;-49
2023/05/03 10:05:26;;;;;;;8.10;6.10;;;;;;;14.28;60.83;98479.63;6068016;29;20237;-48
2023/05/03 10:08:44;;;;;;;6.03;5.43;;;;;;;14.36;62.41;98479.22;6075576;29;20236;-45
2023/05/03 10:11:52;;;;;;;7.87;5.63;;;;;;;14.45;60.17;98473.19;6078068;29;20368;-49
2023/05/03 10:14:56;;;;;;;7.57;5.80;;;;;;;14.49;59.90;98464.69;6076812;29;20273;-49
2023/05/03 10:18:02;;;;;;;7.07;6.27;;;;;;;14.84;57.42;98467.03;6076410;29;20251;-47
2023/05/03 10:21:13;;;;;;;7.63;5.07;;;;;;;14.76;59.72;98459.41;6077111;29;20327;-50
2023/05/03 10:24:16;;;;;;;6.37;5.40;;;;;;;14.73;58.75;98459.88;6066550;29;20236;-46
2023/05/03 10:27:18;;;;;;;6.63;5.60;;;;;;;14.73;56.96;98451.84;6075461;29;20442;-47
2023/05/03 10:30:40;;;;;;;6.70;6.00;;;;;;;14.59;56.81;98462.16;6054361;29;20304;-46
2023/05/03 10:33:42;;;;;;;7.77;5.70;;;;;;;14.65;56.73;98451.25;6075746;29;20368;-46
2023/05/03 10:36:46;;;;;;;6.13;5.37;;;;;;;14.90;57.55;98428.47;6075472;29;20516;-47
2023/05/03 10:39:52;;;;;;;5.00;4.50;;;;;;;15.49;59.06;98453.50;6075249;29;20283;-51
2023/05/03 10:42:58;;;;;;;10.37;5.43;;;;;;;15.77;53.33;98456.19;6076970;29;20252;-50
2023/05/03 10:46:02;;;;;;;7.83;4.53;;;;;;;15.14;54.41;98434.34;6075326;29;20709;-48
2023/05/03 10:49:18;;;;;;;5.77;4.77;;;;;;;15.02;55.40;98447.09;6074292;29;20248;-49
2023/05/03 10:52:39;;;;;;;5.83;4.57;;;;;;;15.01;55.84;98462.38;6075203;29;20247;-48
2023/05/03 10:56:04;;;;;;;6.53;4.47;;;;;;;14.85;57.18;98463.28;6074078;29;20598;-49
2023/05/03 10:59:06;;;;;;;4.67;4.10;;;;;;;14.75;56.97;98461.28;6076199;29;20232;-50
2023/05/03 11:02:13;;;;;;;5.00;4.53;;;;;;;14.65;58.27;98443.19;6062168;29;20239;-49
2023/05/03 11:05:17;;;;;;;5.17;4.50;;;;;;;14.84;59.28;98456.28;6075224;29;20229;-48
2023/05/03 11:08:21;;;;;;;7.00;4.27;;;;;;;14.73;55.00;98449.16;6077554;29;20573;-50
2023/05/03 11:11:23;;;;;;;4.33;3.87;;;;;;;14.91;56.67;98462.28;6073912;29;20251;-50
2023/05/03 11:14:25;;;;;;;5.63;4.40;;;;;;;14.97;55.35;98458.56;6075338;29;20228;-51
2023/05/03 11:17:28;;;;;;;5.10;4.40;;;;;;;14.94;54.86;98451.84;6075107;29;20232;-50
2023/05/03 11:20:30;;;;;;;4.20;3.77;;;;;;;14.91;54.66;98460.41;6074569;29;20333;-50
2023/05/03 11:23:32;;;;;;;4.77;4.37;;;;;;;14.85;59.18;98463.28;6075318;29;20779;-51
2023/05/03 11:26:38;;;;;;;5.70;4.63;;;;;;;14.68;58.93;98466.03;6073185;29;20708;-45
2023/05/03 11:29:40;;;;;;;4.80;4.00;;;;;;;14.60;57.50;98471.81;6073963;29;20239;-45
2023/05/03 11:32:42;;;;;;;5.40;4.70;;;;;;;14.52;56.35;98456.94;6074365;29;20718;-45
2023/05/03 11:35:45;;;;;;;4.37;3.93;;;;;;;14.59;59.79;98471.00;6074455;29;20242;-45
2023/05/03 11:38:47;;;;;;;5.23;4.47;;;;;;;14.64;56.62;98470.25;6076064;29;20233;-45
2023/05/03 11:42:03;;;;;;;4.47;4.07;;;;;;;14.66;56.69;98465.44;6074396;29;20240;-45
2023/05/03 11:45:06;;;;;;;7.20;4.97;;;;;;;14.65;55.97;98463.84;6073002;29;20255;-46
2023/05/03 11:48:09;;;;;;;4.73;4.30;;;;;;;14.65;56.17;98461.16;6073987;29;20231;-47
2023/05/03 11:51:12;;;;;;;5.07;4.57;;;;;;;14.70;56.26;98459.34;6074027;29;20249;-45
2023/05/03 11:54:14;;;;;;;6.30;4.40;;;;;;;14.80;56.95;98457.84;6073847;29;20236;-45
2023/05/03 11:57:27;;;;;;;5.53;4.70;;;;;;;14.95;56.10;98461.53;6074719;29;20306;-46
2023/05/03 12:00:29;;;;;;;7.60;5.37;;;;;;;14.79;54.83;98432.91;6073877;29;20603;-45
2023/05/03 12:03:31;;;;;;;5.93;5.33;;;;;;;14.99;55.35;98464.53;6074745;29;20228;-45
2023/05/03 12:06:35;;;;;;;5.97;5.20;;;;;;;14.89;55.66;98467.09;6076881;29;20228;-45
2023/05/03 12:09:39;;;;;;;4.97;4.47;;;;;;;14.91;55.74;98457.72;6072820;29;20236;-45
2023/05/03 12:13:11;;;;;;;5.23;4.73;;;;;;;15.06;54.68;98458.94;6074441;29;20586;-45
2023/05/03 12:16:17;;;;;;;5.17;4.67;;;;;;;15.16;55.18;98453.69;6068079;29;20896;-46
2023/05/03 12:19:29;;;;;;;7.30;4.80;;;;;;;15.16;54.53;98470.59;6074397;29;20244;-46
2023/05/03 12:22:35;;;;;;;5.30;4.80;;;;;;;15.10;54.36;98457.41;6075353;29;20236;-46
2023/05/03 12:25:37;;;;;;;5.80;5.20;;;;;;;14.97;57.51;98458.56;6062001;29;20315;-45
2023/05/03 12:28:41;;;;;;;5.33;4.83;;;;;;;14.89;56.25;98454.47;6074326;29;20238;-45
2023/05/03 12:31:43;;;;;;;5.83;4.40;;;;;;;14.84;56.33;98453.63;6073251;29;20614;-46
2023/05/03 12:34:50;;;;;;;4.97;4.50;;;;;;;14.79;57.73;98454.34;6073147;29;20722;-46
2023/05/03 12:37:53;;;;;;;5.87;4.50;;;;;;;14.68;58.05;98456.13;6073452;29;20326;-47
2023/05/03 12:40:56;;;;;;;4.50;3.83;;;;;;;14.62;57.85;98453.59;6072144;29;20240;-45
2023/05/03 12:43:58;;;;;;;5.93;4.40;;;;;;;14.61;58.10;98450.09;6073384;29;20228;-45
2023/05/03 12:47:02;;;;;;;3.87;3.47;;;;;;;14.57;59.14;98450.84;6069312;29;20237;-45
2023/05/03 12:50:07;;;;;;;5.00;4.20;;;;;;;14.51;59.24;98447.28;6060814;29;20304;-47
2023/05/03 12:53:13;;;;;;;4.63;3.93;;;;;;;14.49;60.37;98454.78;6061320;29;20236;-45
2023/05/03 12:56:18;;;;;;;5.03;4.20;;;;;;;14.41;61.99;98442.56;6075865;29;20231;-49
2023/05/03 12:59:25;;;;;;;6.37;5.43;;;;;;;14.47;57.98;98446.13;6072995;29;20605;-45
2023/05/03 13:02:30;;;;;;;5.37;4.87;;;;;;;14.33;58.54;98443.00;6073597;29;20239;-46
2023/05/03 13:05:35;;;;;;;4.97;4.37;;;;;;;14.29;58.84;98446.44;6072931;29;20712;-46
2023/05/03 13:08:38;;;;;;;5.33;4.83;;;;;;;14.27;59.42;98437.81;6073324;29;20314;-47
2023/05/03 13:11:51;;;;;;;6.93;4.80;;;;;;;14.26;60.36;98433.53;6072963;29;20271;-45
2023/05/03 13:14:54;;;;;;;4.67;4.20;;;;;;;14.18;61.43;98437.41;6055125;29;20408;-48
2023/05/03 13:18:00;;;;;;;6.07;4.47;;;;;;;14.17;61.04;98436.59;6068795;29;20240;-48
2023/05/03 13:21:02;;;;;;;4.33;3.93;;;;;;;14.14;61.97;98439.81;6071885;29;20247;-44
2023/05/03 13:24:05;;;;;;;3.83;3.37;;;;;;;14.03;62.67;98419.25;6070682;29;20243;-45
2023/05/03 13:27:08;;;;;;;6.30;4.47;;;;;;;14.15;61.24;98430.69;6073697;29;20264;-46
2023/05/03 13:30:10;;;;;;;4.03;3.63;;;;;;;14.07;60.97;98420.38;6060698;29;20248;-48
2023/05/03 13:33:12;;;;;;;4.00;3.53;;;;;;;14.18;64.40;98427.50;6060780;29;20312;-46
2023/05/03 13:36:14;;;;;;;4.50;3.47;;;;;;;14.15;65.81;98433.38;6065167;29;20764;-46
2023/05/03 13:39:17;;;;;;;4.77;4.10;;;;;;;14.14;59.61;98421.03;6071880;29;20244;-46
2023/05/03 13:42:19;;;;;;;6.93;4.30;;;;;;;14.08;61.03;98422.00;6072820;29;20225;-45
2023/05/03 13:45:21;;;;;;;4.40;4.00;;;;;;;14.10;60.07;98429.81;6072568;29;20771;-47
2023/05/03 13:48:24;;;;;;;6.70;4.17;;;;;;;14.10;58.89;98424.47;6073249;29;20765;-45
2023/05/03 13:51:27;;;;;;;5.40;4.03;;;;;;;14.12;59.11;98427.69;6073815;29;20239;-45
2023/05/03 13:54:29;;;;;;;6.23;4.00;;;;;;;14.10;59.15;98432.50;6071923;29;20772;-46
2023/05/03 13:57:33;;;;;;;4.70;3.87;;;;;;;14.13;59.45;98419.41;6073339;29;20231;-45
2023/05/03 14:00:35;;;;;;;5.63;4.00;;;;;;;13.93;60.33;98382.41;6071895;29;20279;-45
2023/05/03 14:03:37;;;;;;;4.80;4.00;;;;;;;14.23;57.81;98420.59;6073782;29;20235;-48
2023/05/03 14:06:39;;;;;;;4.17;3.77;;;;;;;14.21;59.30;98420.84;6071099;29;20249;-45
2023/05/03 14:09:43;;;;;;;4.50;3.60;;;;;;;14.24;57.05;98411.53;6071305;29;20724;-47
2023/05/03 14:12:45;;;;;;;5.43;3.93;;;;;;;14.25;57.77;98418.50;6075141;29;20252;-46
2023/05/03 14:15:47;;;;;;;6.80;4.00;;;;;;;14.19;56.73;98413.06;6072895;29;20307;-45
2023/05/03 14:18:51;;;;;;;5.03;3.87;;;;;;;14.37;56.29;98413.84;6074583;29;20282;-45